Accueil
METAR-TAF:

METAR-TAF

Aéroports :

Aéroport international d'Ivato

Tananarive, Madagascar

latitude: 18-48S, longitude: 047-29E, altitude: 1279 m

Observation

Le bulletin a été fait il y a 14 minutes, à 21:00 UTC
Vent 7 kt de sud-est, variant entre est et sud
Température 14°C
Humidité 88%
Pression 1026 hPa
Visibilité 10 km ou plus
Quelques nuages à une hauteur de 1700 ft
Nuages fragmentés à une hauteur de 2000 ft

METAR: FMMI 172100Z 13007KT 100V170 9999 FEW017 BKN020 14/12 Q1026 NOSIG

Heure: 00:14 (21:14 UTC)

Prévision

Le bulletin a été fait il y a 4 heures et 14 minutes, à 17:00 UTC
Prévision valable du 17 à 18 UTC au 18 à 24 UTC
Vent 8 kt de est
Visibilité 10 km ou plus
Quelques nuages à une hauteur de 2000 ft

TAF: FMMI 171700Z 1718/1824 10008KT 9999 FEW020

Observations et prévisions météorologiques de plus de 4000 aéroports (messages METAR et TAF).

Les stations disponibles sont représentées par des disques jaunes et rouges sur la carte.

Passer la souris dessus pour voir le nom de la station.

Cliquer dessus pour voir les observations et prévisions météorologiques.

Pour changer de carte: cliquez sur les boutons verts avec une croix noire pour zoomer, sur le bouton vert avec un tiret pour effectuer un zoom arrière, ou sur les flèches vertes pour les cartes adjacentes.


METAR-TAF: